Wetter- und Hausseite der Bittkau's aus Magdeburg Ottersleben

Hier werden aktuelle Daten aus einer privaten Wetterstation und

lokale Wettervorhersagen bereitgestellt




Thunder radar more information blitzortung!


Rain radar more information rain snow radar



Es ist keine erhöhte Aufmerksamkeit aufgrund des Wetters notwendig.    Es gibt keine Warnungen.

METAR-Meldungen aus der Umgebung

   
EDDB - Berlin
Aktualisierung: 03.08.2021 10:50
leichter Regen, Regen, Stark bewölkt  
leichter Regen, Regen, Stark bewölkt  
   Wind: Süden 16.7 km/h
Wind: Süden 16.7 km/h
Temperatur: 16°C
Taupunkt: 14°C
Luftfeuchte: 88%
Luftdruck: 1013 hPa
Bewölkt: Stark bewölkt
Sichtbarkeit: More than 10 km
Bewölkung: Stark bewölkt 1463 m
EDDB 032050Z 17009KT 9999 -SHRA BKN048 16/14 Q1013 NOSIG
EDDP - Leipzig
Aktualisierung: 03.08.2021 10:50
Klar  
Klar  
   Wind: Süden 11.1 km/h
Wind: Süden 11.1 km/h
Temperatur: 15°C
Taupunkt: 13°C
Luftfeuchte: 88%
Luftdruck: 1013 hPa
Sichtbarkeit: More than 10 km
Bewölkung: Klar
EDDP 032050Z 17006KT CAVOK 15/13 Q1013 NOSIG
EDDC - Dresden
Aktualisierung: 03.08.2021 10:50
Klar  
Klar  
   Wind: Süden 9.3 km/h
Wind: Süden 9.3 km/h
Temperatur: 14°C
Taupunkt: 13°C
Luftfeuchte: 94%
Luftdruck: 1013 hPa
Sichtbarkeit: More than 10 km
Bewölkung: Klar
EDDC 032050Z 18005KT CAVOK 14/13 Q1013
EDDE - Erfurt
Aktualisierung: 03.08.2021 10:50
leicht bewölkt  
leicht bewölkt  
   Wind: SSW 7.4 km/h
Wind: SSW 7.4 km/h
Temperatur: 14°C
Taupunkt: 13°C
Luftfeuchte: 94%
Luftdruck: 1013 hPa
Bewölkt: leicht bewölkt
Sichtbarkeit: More than 10 km
Bewölkung: leicht bewölkt 1097.3 m
EDDE 032050Z 21004KT 9999 FEW036 14/13 Q1013
EDVE - Braunschweig
Aktualisierung: 03.08.2021 10:50
Bewölkt  
Bewölkt  
   Wind: variiert 3.7 km/h
Wind: variiert 3.7 km/h
Temperatur: 17°C
Taupunkt: 11°C
Luftfeuchte: 68%
Luftdruck: 1013 hPa
Bewölkt: Bewölkt
Sichtbarkeit: More than 10 km
Bewölkung: Teilweise bewölkt 1615.4 m,
Teilweise bewölkt 1828.8 m,
Bewölkt 2895.6 m
EDVE 032050Z AUTO VRB02KT 9999 // SCT053/// SCT060/// OVC095/// 17/11 Q1013
EDDV - Hannover
Aktualisierung: 03.08.2021 10:50
Klar  
Klar  
   Wind: NNO 7.4 km/h
Wind: NNO 7.4 km/h
Temperatur: 17°C
Taupunkt: 11°C
Luftfeuchte: 68%
Luftdruck: 1013 hPa
Sichtbarkeit: More than 10 km
Bewölkung: Klar
EDDV 032050Z 03004KT CAVOK 17/11 Q1013 NOSIG
EDDE - Schwerin
Aktualisierung: 03.08.2021 10:50
leicht bewölkt  
leicht bewölkt  
   Wind: SSW 7.4 km/h
Wind: SSW 7.4 km/h
Temperatur: 14°C
Taupunkt: 13°C
Luftfeuchte: 94%
Luftdruck: 1013 hPa
Bewölkt: leicht bewölkt
Sichtbarkeit: More than 10 km
Bewölkung: leicht bewölkt 1097.3 m
EDDE 032050Z 21004KT 9999 FEW036 14/13 Q1013
EDHI - Hamburg
Aktualisierung: 03.08.2021 10:50
Stark bewölkt  
Stark bewölkt  
   Wind: NNO 9.3 km/h
Wind: NNO 9.3 km/h
Temperatur: 17°C
Taupunkt: 12°C
Luftfeuchte: 73%
Luftdruck: 1013 hPa
Bewölkt: Stark bewölkt
Sichtbarkeit: More than 10 km
Bewölkung: leicht bewölkt 2164.1 m,
Stark bewölkt 2529.8 m
EDHI 032050Z AUTO 02005KT 9999 // FEW071/// BKN083/// 17/12 Q1013
EDDK - Köln-Bonn
Aktualisierung: 03.08.2021 10:50
leicht bewölkt  
leicht bewölkt  
   Wind: Süden 1.9 km/h
Wind: Süden 1.9 km/h
Temperatur: 14°C
Taupunkt: 13°C
Luftfeuchte: 94%
Luftdruck: 1013 hPa
Bewölkt: leicht bewölkt
Sichtbarkeit: More than 10 km
Bewölkung: leicht bewölkt 243.8 m
EDDK 032050Z 17001KT 9999 FEW008 14/13 Q1013 NOSIG

Script entwickelt von  Saratoga-weather.org Angepasst für das Template von  Weerstation Leuven

Sie finden die Wetterinfo auch auf:

Wetternetzwerk Deutschland

European Weather Network

Weather Underground

Regionalwetter-SA

wetter.com

wxforum.de

Genutzte Hardware, Software und WEB Anbieter:

Wetterstation
Ventus W928-Ultimate

Wetterprogramm
Meteohub

WetterComputer
RaspberryPI

Anbieter

Ventus W928-Ultimate

Meteohub

RaspberryPI